メインページ
METAR-TAF:

METAR-TAF

空港 :

テヘラン, イラン

メヘラーバード国際空港

緯度: 35-41N, 経度: 051-21E, 海抜: 1204m

現時点の気象観測

当レポートは15分前の12:00(UTC)に作成
東/北東の風 4kt
気温 11°C
湿度 62%
気圧 1011 hPa
視程10km以上
高度3000ftの雲は散在している, 積乱雲.
高度9000ftの千切れ雲あり

METAR: OIII 241200Z 07004KT 9999 SCT030CB BKN090 11/04 Q1010 A2984 NOSIG

時間: 15:45 (12:15 UTC)

予報

当レポートは6時間45分前の05:30(UTC)に作成
予報は24日の 06時(UTC)から 25日の 12時(UTC)まで有効
東/北東の風 8kt
視程: 6000m
高度3500ftの雲はほとんどない, 積乱雲.
高度4000ftの雲は散在している
高度9000ftの千切れ雲あり
24日の 06時(UTC)から 24日の 12時(UTC)まで一時的に
視程: 5000m
高度3000ftの雲はほとんどない, 積乱雲.
高度3500ftの雲は散在している
高度8000ftの曇り
24日の 20時(UTC)から 24日の 22時(UTC)まで徐々に
北西の風 8kt
視程: 4000m
高度3000ftの雲は散在している, 積乱雲.
高度3500ftの雲は散在している
高度9000ftの曇り
25日の 00時(UTC)から 25日の 06時(UTC)まで一時的に
視程: 2000m
雨, 靄
25日の 06時(UTC)から 25日の 08時(UTC)まで徐々に
東/南東の風 8kt
視程: 6000m
高度3500ftの雲はほとんどない
高度10000ftの千切れ雲あり
25日の 09時(UTC)から 25日の 12時(UTC)まで一時的に
南西の風 16kt

TAF: OIII 240530Z 2406/2512 06004MPS 6000 FEW035CB SCT040 BKN090 TEMPO 2406/2412 5000 RA FEW030CB SCT035 OVC080 BECMG 2420/2422 32004MPS 4000 RA SCT030CB SCT035 OVC090 TEMPO 2500/2506 2000 RA BR BECMG 2506/2508 12004MPS 6000 FEW035 BKN100 TEMPO 2509/2512 22008MPS

4,000以上の空港の気象観測と天気予報(METAR報とTAF報)

利用可能な観測所は地図上に黄色い丸と赤い丸で示す。

丸の上にカーソルを重ねると観測所名を参照できる。

次にクリックすると気象観測と天気予報を参照できる。

マップの切り替え:黒色「×」印の緑ボタンをクリックして拡大、「-」印の緑ボタンをクリックして縮小、緑色の三角印をクリックして隣りの地図に切り替え


METAR-TAF: